sensor_id;sensor_type;location;lat;lon;timestamp;pressure;altitude;pressure_sealevel;temperature;humidity
11343;BME280;5726;42.160;24.746;2023-04-08T00:02:02;99769.34;;;11.60;51.93
11343;BME280;5726;42.160;24.746;2023-04-08T00:04:27;99764.44;;;11.43;52.68
11343;BME280;5726;42.160;24.746;2023-04-08T00:06:52;99775.00;;;11.35;52.24
11343;BME280;5726;42.160;24.746;2023-04-08T00:09:18;99771.13;;;11.46;52.47
11343;BME280;5726;42.160;24.746;2023-04-08T00:11:44;99769.13;;;11.56;53.00
11343;BME280;5726;42.160;24.746;2023-04-08T00:14:09;99767.31;;;11.52;53.26
11343;BME280;5726;42.160;24.746;2023-04-08T00:16:35;99776.19;;;11.71;51.92
11343;BME280;5726;42.160;24.746;2023-04-08T00:19:00;99773.56;;;11.66;52.01
11343;BME280;5726;42.160;24.746;2023-04-08T00:21:26;99772.19;;;11.45;54.77
11343;BME280;5726;42.160;24.746;2023-04-08T00:23:51;99779.63;;;11.53;54.89
11343;BME280;5726;42.160;24.746;2023-04-08T00:26:18;99778.31;;;11.27;56.31
11343;BME280;5726;42.160;24.746;2023-04-08T00:28:43;99785.91;;;11.20;56.72
11343;BME280;5726;42.160;24.746;2023-04-08T00:31:09;99790.84;;;11.13;57.32
11343;BME280;5726;42.160;24.746;2023-04-08T00:33:35;99783.22;;;10.97;57.54
11343;BME280;5726;42.160;24.746;2023-04-08T00:36:00;99784.94;;;10.88;58.13
11343;BME280;5726;42.160;24.746;2023-04-08T00:38:26;99781.50;;;10.83;58.29
11343;BME280;5726;42.160;24.746;2023-04-08T00:40:51;99774.63;;;10.72;59.25
11343;BME280;5726;42.160;24.746;2023-04-08T00:43:17;99782.53;;;10.87;59.00
11343;BME280;5726;42.160;24.746;2023-04-08T00:45:47;99778.19;;;10.62;59.63
11343;BME280;5726;42.160;24.746;2023-04-08T00:48:13;99785.44;;;10.62;60.24
11343;BME280;5726;42.160;24.746;2023-04-08T00:50:38;99782.81;;;10.85;59.01
11343;BME280;5726;42.160;24.746;2023-04-08T00:53:04;99790.75;;;10.95;58.58
11343;BME280;5726;42.160;24.746;2023-04-08T00:55:30;99778.63;;;10.74;59.21
11343;BME280;5726;42.160;24.746;2023-04-08T00:57:56;99793.91;;;10.74;59.12
11343;BME280;5726;42.160;24.746;2023-04-08T01:00:21;99794.06;;;10.59;60.35
11343;BME280;5726;42.160;24.746;2023-04-08T01:03:22;99796.16;;;10.62;62.13
11343;BME280;5726;42.160;24.746;2023-04-08T01:08:22;99804.16;;;10.67;65.27
11343;BME280;5726;42.160;24.746;2023-04-08T01:10:52;99809.06;;;10.88;65.12
11343;BME280;5726;42.160;24.746;2023-04-08T01:13:25;99805.28;;;10.61;67.35
11343;BME280;5726;42.160;24.746;2023-04-08T01:15:53;99801.09;;;10.50;70.93
11343;BME280;5726;42.160;24.746;2023-04-08T01:18:20;99814.16;;;10.56;74.55
11343;BME280;5726;42.160;24.746;2023-04-08T01:20:47;99805.91;;;10.53;76.47
11343;BME280;5726;42.160;24.746;2023-04-08T01:23:39;99812.00;;;10.25;80.33
11343;BME280;5726;42.160;24.746;2023-04-08T01:26:11;99810.81;;;10.41;81.24
11343;BME280;5726;42.160;24.746;2023-04-08T01:28:38;99815.19;;;10.32;83.54
11343;BME280;5726;42.160;24.746;2023-04-08T01:31:05;99812.00;;;10.25;85.76
11343;BME280;5726;42.160;24.746;2023-04-08T01:33:32;99815.25;;;10.22;86.29
11343;BME280;5726;42.160;24.746;2023-04-08T01:35:59;99811.22;;;10.25;86.72
11343;BME280;5726;42.160;24.746;2023-04-08T01:38:26;99816.34;;;10.21;87.90
11343;BME280;5726;42.160;24.746;2023-04-08T01:40:53;99816.34;;;10.16;89.34
11343;BME280;5726;42.160;24.746;2023-04-08T01:43:20;99822.06;;;10.05;90.71
11343;BME280;5726;42.160;24.746;2023-04-08T01:45:46;99814.72;;;10.20;90.00
11343;BME280;5726;42.160;24.746;2023-04-08T01:48:13;99811.78;;;10.22;90.24
11343;BME280;5726;42.160;24.746;2023-04-08T01:50:43;99813.41;;;10.18;91.31
11343;BME280;5726;42.160;24.746;2023-04-08T01:53:10;99811.59;;;10.08;91.26
11343;BME280;5726;42.160;24.746;2023-04-08T01:55:37;99816.47;;;10.02;92.55
11343;BME280;5726;42.160;24.746;2023-04-08T01:58:04;99824.66;;;10.15;92.25
11343;BME280;5726;42.160;24.746;2023-04-08T02:00:33;99831.78;;;10.34;91.41
11343;BME280;5726;42.160;24.746;2023-04-08T02:03:00;99842.34;;;10.16;92.72
11343;BME280;5726;42.160;24.746;2023-04-08T02:05:26;99838.38;;;10.08;93.28
11343;BME280;5726;42.160;24.746;2023-04-08T02:07:52;99843.19;;;10.11;94.03
11343;BME280;5726;42.160;24.746;2023-04-08T02:10:17;99840.09;;;9.85;95.72
11343;BME280;5726;42.160;24.746;2023-04-08T02:12:43;99835.78;;;9.94;96.13
11343;BME280;5726;42.160;24.746;2023-04-08T02:15:10;99833.69;;;9.81;96.10
11343;BME280;5726;42.160;24.746;2023-04-08T02:17:45;99831.50;;;9.98;96.18
11343;BME280;5726;42.160;24.746;2023-04-08T02:20:21;99840.03;;;10.00;95.98
11343;BME280;5726;42.160;24.746;2023-04-08T02:25:37;99845.78;;;9.68;98.33
11343;BME280;5726;42.160;24.746;2023-04-08T02:28:06;99845.47;;;9.80;97.90
11343;BME280;5726;42.160;24.746;2023-04-08T02:30:34;99839.81;;;9.96;97.13
11343;BME280;5726;42.160;24.746;2023-04-08T02:33:03;99846.22;;;9.90;97.59
11343;BME280;5726;42.160;24.746;2023-04-08T02:35:29;99843.22;;;10.06;96.37
11343;BME280;5726;42.160;24.746;2023-04-08T02:37:55;99848.78;;;10.15;95.32
11343;BME280;5726;42.160;24.746;2023-04-08T02:40:31;99845.53;;;9.65;99.05
11343;BME280;5726;42.160;24.746;2023-04-08T02:42:58;99836.59;;;9.89;97.96
11343;BME280;5726;42.160;24.746;2023-04-08T02:45:29;99845.47;;;9.80;98.32
11343;BME280;5726;42.160;24.746;2023-04-08T02:47:56;99848.41;;;9.83;98.48
11343;BME280;5726;42.160;24.746;2023-04-08T02:50:21;99838.50;;;9.79;98.39
11343;BME280;5726;42.160;24.746;2023-04-08T02:52:47;99831.63;;;9.68;99.45
11343;BME280;5726;42.160;24.746;2023-04-08T02:55:12;99846.53;;;9.79;99.17
11343;BME280;5726;42.160;24.746;2023-04-08T02:57:39;99844.06;;;9.92;98.10
11343;BME280;5726;42.160;24.746;2023-04-08T03:00:05;99853.47;;;9.85;98.23
11343;BME280;5726;42.160;24.746;2023-04-08T03:02:31;99849.22;;;9.79;99.39
11343;BME280;5726;42.160;24.746;2023-04-08T03:04:57;99865.03;;;9.75;99.86
11343;BME280;5726;42.160;24.746;2023-04-08T03:07:22;99868.03;;;9.69;100.00
11343;BME280;5726;42.160;24.746;2023-04-08T03:09:48;99868.78;;;9.74;100.00
11343;BME280;5726;42.160;24.746;2023-04-08T03:12:13;99866.13;;;9.69;100.00
11343;BME280;5726;42.160;24.746;2023-04-08T03:14:39;99876.47;;;9.91;100.00
11343;BME280;5726;42.160;24.746;2023-04-08T03:17:04;99868.25;;;9.77;100.00
11343;BME280;5726;42.160;24.746;2023-04-08T03:19:30;99859.47;;;9.62;100.00
11343;BME280;5726;42.160;24.746;2023-04-08T03:21:55;99869.06;;;9.78;100.00
11343;BME280;5726;42.160;24.746;2023-04-08T03:24:20;99868.94;;;9.35;100.00
11343;BME280;5726;42.160;24.746;2023-04-08T03:26:46;99871.78;;;9.63;100.00
11343;BME280;5726;42.160;24.746;2023-04-08T03:29:11;99875.84;;;9.51;100.00
11343;BME280;5726;42.160;24.746;2023-04-08T03:31:37;99859.03;;;9.35;100.00
11343;BME280;5726;42.160;24.746;2023-04-08T03:34:02;99867.22;;;9.63;100.00
11343;BME280;5726;42.160;24.746;2023-04-08T03:36:28;99867.53;;;9.52;100.00
11343;BME280;5726;42.160;24.746;2023-04-08T03:38:53;99863.59;;;9.25;100.00
11343;BME280;5726;42.160;24.746;2023-04-08T03:41:18;99868.91;;;9.40;100.00
11343;BME280;5726;42.160;24.746;2023-04-08T03:43:45;99865.16;;;9.36;100.00
11343;BME280;5726;42.160;24.746;2023-04-08T03:46:10;99863.28;;;9.41;100.00
11343;BME280;5726;42.160;24.746;2023-04-08T03:48:36;99861.97;;;9.34;100.00
11343;BME280;5726;42.160;24.746;2023-04-08T03:51:01;99875.28;;;9.58;100.00
11343;BME280;5726;42.160;24.746;2023-04-08T03:53:27;99875.59;;;9.37;100.00
11343;BME280;5726;42.160;24.746;2023-04-08T03:55:54;99872.09;;;9.52;100.00
11343;BME280;5726;42.160;24.746;2023-04-08T03:58:20;99878.31;;;9.27;100.00
11343;BME280;5726;42.160;24.746;2023-04-08T04:00:45;99884.47;;;9.28;100.00
11343;BME280;5726;42.160;24.746;2023-04-08T04:03:10;99880.69;;;9.39;100.00
11343;BME280;5726;42.160;24.746;2023-04-08T04:05:38;99874.56;;;9.28;100.00
11343;BME280;5726;42.160;24.746;2023-04-08T04:08:03;99879.06;;;9.52;100.00
11343;BME280;5726;42.160;24.746;2023-04-08T04:10:29;99879.03;;;9.57;100.00
11343;BME280;5726;42.160;24.746;2023-04-08T04:12:54;99878.72;;;9.64;100.00
11343;BME280;5726;42.160;24.746;2023-04-08T04:15:20;99887.09;;;9.52;100.00
11343;BME280;5726;42.160;24.746;2023-04-08T04:17:49;99886.28;;;9.47;100.00
11343;BME280;5726;42.160;24.746;2023-04-08T04:20:16;99888.97;;;9.37;100.00
11343;BME280;5726;42.160;24.746;2023-04-08T04:22:41;99896.50;;;9.25;100.00
11343;BME280;5726;42.160;24.746;2023-04-08T04:25:07;99899.69;;;9.42;100.00
11343;BME280;5726;42.160;24.746;2023-04-08T04:27:33;99900.47;;;9.52;100.00
11343;BME280;5726;42.160;24.746;2023-04-08T04:29:59;99890.63;;;9.33;100.00
11343;BME280;5726;42.160;24.746;2023-04-08T04:32:25;99898.56;;;9.63;100.00
11343;BME280;5726;42.160;24.746;2023-04-08T04:34:50;99888.09;;;9.76;100.00
11343;BME280;5726;42.160;24.746;2023-04-08T04:37:16;99890.00;;;9.66;100.00
11343;BME280;5726;42.160;24.746;2023-04-08T04:39:42;99891.63;;;9.57;100.00
11343;BME280;5726;42.160;24.746;2023-04-08T04:42:08;99898.03;;;9.66;100.00
11343;BME280;5726;42.160;24.746;2023-04-08T04:44:33;99887.91;;;9.43;100.00
11343;BME280;5726;42.160;24.746;2023-04-08T04:46:59;99893.44;;;9.76;100.00
11343;BME280;5726;42.160;24.746;2023-04-08T04:49:24;99890.25;;;9.64;100.00
11343;BME280;5726;42.160;24.746;2023-04-08T04:51:50;99901.75;;;9.65;100.00
11343;BME280;5726;42.160;24.746;2023-04-08T04:54:15;99904.69;;;9.68;100.00
11343;BME280;5726;42.160;24.746;2023-04-08T04:56:41;99894.81;;;9.59;100.00
11343;BME280;5726;42.160;24.746;2023-04-08T04:59:06;99892.75;;;9.36;100.00
11343;BME280;5726;42.160;24.746;2023-04-08T05:01:33;99906.88;;;9.52;100.00
11343;BME280;5726;42.160;24.746;2023-04-08T05:03:58;99902.03;;;9.63;100.00
11343;BME280;5726;42.160;24.746;2023-04-08T05:06:24;99900.69;;;9.61;100.00
11343;BME280;5726;42.160;24.746;2023-04-08T05:08:50;99895.34;;;9.66;100.00
11343;BME280;5726;42.160;24.746;2023-04-08T05:11:16;99902.75;;;9.89;100.00
11343;BME280;5726;42.160;24.746;2023-04-08T05:13:43;99911.53;;;10.04;100.00
11343;BME280;5726;42.160;24.746;2023-04-08T05:16:09;99906.47;;;10.02;100.00
11343;BME280;5726;42.160;24.746;2023-04-08T05:18:34;99919.38;;;9.96;100.00
11343;BME280;5726;42.160;24.746;2023-04-08T05:21:00;99923.38;;;9.88;100.00
11343;BME280;5726;42.160;24.746;2023-04-08T05:23:26;99921.75;;;9.87;100.00
11343;BME280;5726;42.160;24.746;2023-04-08T05:25:51;99921.25;;;9.85;100.00
11343;BME280;5726;42.160;24.746;2023-04-08T05:28:17;99927.88;;;10.02;100.00
11343;BME280;5726;42.160;24.746;2023-04-08T05:30:47;99925.97;;;10.13;100.00
11343;BME280;5726;42.160;24.746;2023-04-08T05:33:13;99928.25;;;10.34;100.00
11343;BME280;5726;42.160;24.746;2023-04-08T05:35:38;99932.97;;;10.52;100.00
11343;BME280;5726;42.160;24.746;2023-04-08T05:38:04;99932.53;;;10.35;100.00
11343;BME280;5726;42.160;24.746;2023-04-08T05:40:30;99931.66;;;10.49;100.00
11343;BME280;5726;42.160;24.746;2023-04-08T05:42:56;99933.00;;;10.47;100.00
11343;BME280;5726;42.160;24.746;2023-04-08T05:45:21;99932.63;;;10.20;100.00
11343;BME280;5726;42.160;24.746;2023-04-08T05:47:47;99929.44;;;10.18;100.00
11343;BME280;5726;42.160;24.746;2023-04-08T05:50:12;99930.72;;;10.26;100.00
11343;BME280;5726;42.160;24.746;2023-04-08T05:52:42;99937.88;;;10.40;100.00
11343;BME280;5726;42.160;24.746;2023-04-08T05:55:09;99938.94;;;10.44;99.84
11343;BME280;5726;42.160;24.746;2023-04-08T05:57:34;99933.19;;;10.60;100.00
11343;BME280;5726;42.160;24.746;2023-04-08T06:00:00;99928.34;;;11.00;100.00
11343;BME280;5726;42.160;24.746;2023-04-08T06:02:25;99929.97;;;10.96;96.28
11343;BME280;5726;42.160;24.746;2023-04-08T06:04:51;99925.84;;;11.09;93.99
11343;BME280;5726;42.160;24.746;2023-04-08T06:07:16;99935.25;;;11.06;94.10
11343;BME280;5726;42.160;24.746;2023-04-08T06:09:41;99929.06;;;11.11;93.94
11343;BME280;5726;42.160;24.746;2023-04-08T06:12:07;99936.03;;;11.12;93.91
11343;BME280;5726;42.160;24.746;2023-04-08T06:14:32;99944.94;;;11.07;92.89
11343;BME280;5726;42.160;24.746;2023-04-08T06:16:58;99939.00;;;11.10;92.46
11343;BME280;5726;42.160;24.746;2023-04-08T06:19:23;99939.28;;;11.09;93.54
11343;BME280;5726;42.160;24.746;2023-04-08T06:21:49;99941.13;;;11.13;93.39
11343;BME280;5726;42.160;24.746;2023-04-08T06:24:15;99935.91;;;11.55;90.79
11343;BME280;5726;42.160;24.746;2023-04-08T06:26:41;99940.06;;;11.38;90.88
11343;BME280;5726;42.160;24.746;2023-04-08T06:29:06;99940.16;;;11.61;89.80
11343;BME280;5726;42.160;24.746;2023-04-08T06:31:32;99937.34;;;11.43;90.52
11343;BME280;5726;42.160;24.746;2023-04-08T06:33:58;99940.72;;;11.58;89.73
11343;BME280;5726;42.160;24.746;2023-04-08T06:36:23;99948.59;;;12.19;88.17
11343;BME280;5726;42.160;24.746;2023-04-08T06:38:49;99937.50;;;12.62;85.18
11343;BME280;5726;42.160;24.746;2023-04-08T06:41:15;99934.97;;;12.52;82.09
11343;BME280;5726;42.160;24.746;2023-04-08T06:43:40;99933.88;;;12.53;80.76
11343;BME280;5726;42.160;24.746;2023-04-08T06:46:06;99938.22;;;12.31;82.40
11343;BME280;5726;42.160;24.746;2023-04-08T06:48:31;99931.16;;;12.17;83.73
11343;BME280;5726;42.160;24.746;2023-04-08T06:50:58;99936.94;;;12.47;82.41
11343;BME280;5726;42.160;24.746;2023-04-08T06:53:24;99929.00;;;12.55;81.04
11343;BME280;5726;42.160;24.746;2023-04-08T06:55:50;99935.91;;;12.43;81.21
11343;BME280;5726;42.160;24.746;2023-04-08T06:58:16;99932.19;;;12.39;81.89
11343;BME280;5726;42.160;24.746;2023-04-08T07:00:41;99935.28;;;12.88;78.76
11343;BME280;5726;42.160;24.746;2023-04-08T07:03:07;99933.66;;;12.68;80.28
11343;BME280;5726;42.160;24.746;2023-04-08T07:05:34;99929.72;;;12.61;80.19
11343;BME280;5726;42.160;24.746;2023-04-08T07:08:01;99924.03;;;12.81;78.91
11343;BME280;5726;42.160;24.746;2023-04-08T07:10:26;99932.16;;;12.99;77.62
11343;BME280;5726;42.160;24.746;2023-04-08T07:12:53;99929.88;;;13.51;78.26
11343;BME280;5726;42.160;24.746;2023-04-08T07:15:18;99932.53;;;14.09;74.66
11343;BME280;5726;42.160;24.746;2023-04-08T07:17:43;99945.38;;;14.52;68.29
11343;BME280;5726;42.160;24.746;2023-04-08T07:20:09;99948.19;;;14.47;66.27
11343;BME280;5726;42.160;24.746;2023-04-08T07:22:36;99945.53;;;14.56;66.19
11343;BME280;5726;42.160;24.746;2023-04-08T07:25:01;99947.03;;;14.62;66.74
11343;BME280;5726;42.160;24.746;2023-04-08T07:27:27;99944.25;;;14.67;66.13
11343;BME280;5726;42.160;24.746;2023-04-08T07:29:53;99948.19;;;14.47;66.49
11343;BME280;5726;42.160;24.746;2023-04-08T07:32:19;99942.41;;;14.76;65.22
11343;BME280;5726;42.160;24.746;2023-04-08T07:34:44;99946.16;;;14.88;65.13
11343;BME280;5726;42.160;24.746;2023-04-08T07:37:10;99942.44;;;14.62;65.68
11343;BME280;5726;42.160;24.746;2023-04-08T07:39:35;99947.75;;;14.54;67.05
11343;BME280;5726;42.160;24.746;2023-04-08T07:42:01;99943.97;;;14.77;65.17
11343;BME280;5726;42.160;24.746;2023-04-08T07:44:26;99931.00;;;15.00;64.66
11343;BME280;5726;42.160;24.746;2023-04-08T07:46:52;99940.94;;;14.91;63.95
11343;BME280;5726;42.160;24.746;2023-04-08T07:49:17;99949.91;;;15.00;64.50
11343;BME280;5726;42.160;24.746;2023-04-08T07:51:43;99939.13;;;15.22;63.72
11343;BME280;5726;42.160;24.746;2023-04-08T07:54:08;99940.66;;;15.67;61.14
11343;BME280;5726;42.160;24.746;2023-04-08T07:56:36;99947.25;;;15.82;59.80
11343;BME280;5726;42.160;24.746;2023-04-08T07:59:05;99938.53;;;15.55;60.36
11343;BME280;5726;42.160;24.746;2023-04-08T08:01:31;99946.66;;;15.33;61.28
11343;BME280;5726;42.160;24.746;2023-04-08T08:03:59;99950.38;;;14.81;61.82
11343;BME280;5726;42.160;24.746;2023-04-08T08:06:24;99951.59;;;14.75;63.23
11343;BME280;5726;42.160;24.746;2023-04-08T08:08:50;99949.53;;;14.93;63.04
11343;BME280;5726;42.160;24.746;2023-04-08T08:11:16;99947.59;;;15.29;61.17
11343;BME280;5726;42.160;24.746;2023-04-08T08:13:41;99946.88;;;15.45;60.12
11343;BME280;5726;42.160;24.746;2023-04-08T08:16:07;99951.78;;;15.65;60.90
11343;BME280;5726;42.160;24.746;2023-04-08T08:18:35;99954.34;;;15.70;58.89
11343;BME280;5726;42.160;24.746;2023-04-08T08:21:01;99945.13;;;15.41;60.49
11343;BME280;5726;42.160;24.746;2023-04-08T08:23:27;99947.19;;;15.44;60.76
11343;BME280;5726;42.160;24.746;2023-04-08T08:26:03;99940.78;;;15.10;60.83
11343;BME280;5726;42.160;24.746;2023-04-08T08:28:30;99938.91;;;15.71;77.61
11343;BME280;5726;42.160;24.746;2023-04-08T08:30:56;99942.13;;;16.20;65.21
11343;BME280;5726;42.160;24.746;2023-04-08T08:33:22;99941.13;;;16.63;57.16
11343;BME280;5726;42.160;24.746;2023-04-08T08:35:47;99931.41;;;16.70;56.17
11343;BME280;5726;42.160;24.746;2023-04-08T08:38:13;99949.25;;;16.54;56.51
11343;BME280;5726;42.160;24.746;2023-04-08T08:40:38;99940.38;;;16.15;58.26
11343;BME280;5726;42.160;24.746;2023-04-08T08:43:04;99924.75;;;16.12;58.60
11343;BME280;5726;42.160;24.746;2023-04-08T08:45:29;99938.38;;;15.90;57.06
11343;BME280;5726;42.160;24.746;2023-04-08T08:47:55;99932.34;;;15.93;56.17
11343;BME280;5726;42.160;24.746;2023-04-08T08:50:22;99923.41;;;15.84;56.02
11343;BME280;5726;42.160;24.746;2023-04-08T08:52:51;99913.63;;;16.05;57.49
11343;BME280;5726;42.160;24.746;2023-04-08T08:55:20;99927.41;;;16.51;56.64
11343;BME280;5726;42.160;24.746;2023-04-08T08:57:49;99927.25;;;16.47;54.92
11343;BME280;5726;42.160;24.746;2023-04-08T09:00:16;99917.22;;;16.48;55.66
11343;BME280;5726;42.160;24.746;2023-04-08T09:02:42;99933.03;;;16.71;54.49
11343;BME280;5726;42.160;24.746;2023-04-08T09:05:07;99926.97;;;16.66;53.94
11343;BME280;5726;42.160;24.746;2023-04-08T09:07:37;99926.22;;;16.10;54.18
11343;BME280;5726;42.160;24.746;2023-04-08T09:10:05;99923.31;;;16.06;53.84
11343;BME280;5726;42.160;24.746;2023-04-08T09:12:31;99921.09;;;16.17;55.48
11343;BME280;5726;42.160;24.746;2023-04-08T09:15:03;99925.59;;;15.82;54.48
11343;BME280;5726;42.160;24.746;2023-04-08T09:17:37;99921.75;;;15.75;53.23
11343;BME280;5726;42.160;24.746;2023-04-08T09:20:11;99924.56;;;15.92;51.95
11343;BME280;5726;42.160;24.746;2023-04-08T09:22:59;99924.81;;;15.82;53.58
11343;BME280;5726;42.160;24.746;2023-04-08T09:25:32;99921.78;;;15.45;54.84
11343;BME280;5726;42.160;24.746;2023-04-08T09:27:58;99918.00;;;15.02;56.51
11343;BME280;5726;42.160;24.746;2023-04-08T09:30:26;99919.91;;;15.24;56.58
11343;BME280;5726;42.160;24.746;2023-04-08T09:32:56;99918.28;;;15.44;54.70
11343;BME280;5726;42.160;24.746;2023-04-08T09:35:22;99910.88;;;15.58;53.82
11343;BME280;5726;42.160;24.746;2023-04-08T09:37:48;99918.53;;;15.65;53.79
11343;BME280;5726;42.160;24.746;2023-04-08T09:40:15;99921.97;;;15.78;53.84
11343;BME280;5726;42.160;24.746;2023-04-08T09:42:47;99916.63;;;16.04;52.55
11343;BME280;5726;42.160;24.746;2023-04-08T09:45:16;99920.53;;;16.28;50.43
11343;BME280;5726;42.160;24.746;2023-04-08T09:47:56;99924.06;;;15.90;50.82
11343;BME280;5726;42.160;24.746;2023-04-08T09:50:31;99918.41;;;16.08;52.04
11343;BME280;5726;42.160;24.746;2023-04-08T09:53:03;99913.22;;;15.81;51.15
11343;BME280;5726;42.160;24.746;2023-04-08T09:55:35;99920.06;;;16.26;50.00
11343;BME280;5726;42.160;24.746;2023-04-08T09:58:05;99913.66;;;15.75;50.89
11343;BME280;5726;42.160;24.746;2023-04-08T10:00:42;99927.25;;;16.39;52.07
11343;BME280;5726;42.160;24.746;2023-04-08T10:05:49;99922.31;;;16.41;48.60
11343;BME280;5726;42.160;24.746;2023-04-08T10:08:16;99913.41;;;16.49;47.98
11343;BME280;5726;42.160;24.746;2023-04-08T10:10:42;99913.47;;;16.10;49.45
11343;BME280;5726;42.160;24.746;2023-04-08T10:13:08;99920.28;;;16.08;50.49
11343;BME280;5726;42.160;24.746;2023-04-08T10:15:35;99898.53;;;16.13;51.08
11343;BME280;5726;42.160;24.746;2023-04-08T10:23:03;99898.44;;;16.43;51.21
11343;BME280;5726;42.160;24.746;2023-04-08T10:30:47;99884.47;;;15.94;52.75
11343;BME280;5726;42.160;24.746;2023-04-08T10:33:21;99877.25;;;15.73;53.71
11343;BME280;5726;42.160;24.746;2023-04-08T10:35:52;99884.38;;;16.24;53.41
11343;BME280;5726;42.160;24.746;2023-04-08T10:38:18;99882.19;;;16.43;53.29
11343;BME280;5726;42.160;24.746;2023-04-08T10:40:44;99872.66;;;16.45;51.53
11343;BME280;5726;42.160;24.746;2023-04-08T10:43:11;99875.81;;;16.30;51.65
11343;BME280;5726;42.160;24.746;2023-04-08T10:45:38;99870.25;;;16.86;52.11
11343;BME280;5726;42.160;24.746;2023-04-08T10:50:43;99872.34;;;16.64;50.00
11343;BME280;5726;42.160;24.746;2023-04-08T10:53:09;99863.56;;;16.33;50.35
11343;BME280;5726;42.160;24.746;2023-04-08T10:55:35;99861.66;;;16.50;50.52
11343;BME280;5726;42.160;24.746;2023-04-08T10:58:07;99858.63;;;16.85;49.16
11343;BME280;5726;42.160;24.746;2023-04-08T11:00:37;99860.53;;;16.60;49.58
11343;BME280;5726;42.160;24.746;2023-04-08T11:03:03;99852.19;;;17.15;49.74
11343;BME280;5726;42.160;24.746;2023-04-08T11:05:30;99846.44;;;17.25;48.32
11343;BME280;5726;42.160;24.746;2023-04-08T11:07:57;99848.34;;;17.33;48.44
11343;BME280;5726;42.160;24.746;2023-04-08T11:10:24;99845.38;;;17.09;49.38
11343;BME280;5726;42.160;24.746;2023-04-08T11:12:49;99839.53;;;16.74;50.03
11343;BME280;5726;42.160;24.746;2023-04-08T11:15:16;99841.41;;;16.81;50.38
11343;BME280;5726;42.160;24.746;2023-04-08T11:17:41;99845.28;;;16.47;51.06
11343;BME280;5726;42.160;24.746;2023-04-08T11:20:08;99839.03;;;16.29;51.41
11343;BME280;5726;42.160;24.746;2023-04-08T11:22:34;99835.69;;;16.24;51.85
11343;BME280;5726;42.160;24.746;2023-04-08T11:25:00;99829.81;;;16.56;51.83
11343;BME280;5726;42.160;24.746;2023-04-08T11:27:27;99823.91;;;16.71;50.97
11343;BME280;5726;42.160;24.746;2023-04-08T11:29:54;99823.41;;;16.85;50.92
11343;BME280;5726;42.160;24.746;2023-04-08T11:32:21;99824.38;;;16.73;51.39
11343;BME280;5726;42.160;24.746;2023-04-08T11:34:48;99823.28;;;16.74;51.31
11343;BME280;5726;42.160;24.746;2023-04-08T11:37:14;99822.28;;;16.95;50.46
11343;BME280;5726;42.160;24.746;2023-04-08T11:39:44;99812.34;;;17.07;50.03
11343;BME280;5726;42.160;24.746;2023-04-08T11:42:32;99808.47;;;16.79;50.67
11343;BME280;5726;42.160;24.746;2023-04-08T11:44:57;99804.09;;;16.95;50.74
11343;BME280;5726;42.160;24.746;2023-04-08T11:47:33;99798.22;;;16.85;50.95
11343;BME280;5726;42.160;24.746;2023-04-08T11:49:59;99800.50;;;16.66;51.66
11343;BME280;5726;42.160;24.746;2023-04-08T11:52:44;99802.84;;;16.84;51.95
11343;BME280;5726;42.160;24.746;2023-04-08T11:55:11;99795.19;;;16.86;52.12
11343;BME280;5726;42.160;24.746;2023-04-08T11:57:37;99792.38;;;16.58;52.62
11343;BME280;5726;42.160;24.746;2023-04-08T12:00:06;99784.72;;;16.76;52.11
11343;BME280;5726;42.160;24.746;2023-04-08T12:02:32;99792.81;;;16.85;51.92
11343;BME280;5726;42.160;24.746;2023-04-08T12:04:57;99786.91;;;16.91;51.58
11343;BME280;5726;42.160;24.746;2023-04-08T12:07:23;99780.41;;;16.75;51.98
11343;BME280;5726;42.160;24.746;2023-04-08T12:09:48;99779.97;;;16.57;52.38
11343;BME280;5726;42.160;24.746;2023-04-08T12:12:14;99774.03;;;16.72;52.05
11343;BME280;5726;42.160;24.746;2023-04-08T12:14:39;99772.09;;;16.97;51.98
11343;BME280;5726;42.160;24.746;2023-04-08T12:17:05;99781.75;;;17.15;50.98
11343;BME280;5726;42.160;24.746;2023-04-08T12:19:30;99775.25;;;17.08;51.56
11343;BME280;5726;42.160;24.746;2023-04-08T12:21:56;99760.97;;;16.82;52.18
11343;BME280;5726;42.160;24.746;2023-04-08T12:24:21;99767.97;;;16.83;52.47
11343;BME280;5726;42.160;24.746;2023-04-08T12:26:47;99776.28;;;16.78;52.57
11343;BME280;5726;42.160;24.746;2023-04-08T12:29:12;99758.16;;;17.07;51.75
11343;BME280;5726;42.160;24.746;2023-04-08T12:31:37;99756.94;;;16.96;51.95
11343;BME280;5726;42.160;24.746;2023-04-08T12:34:03;99757.31;;;16.78;52.31
11343;BME280;5726;42.160;24.746;2023-04-08T12:36:28;99747.28;;;16.70;54.29
11343;BME280;5726;42.160;24.746;2023-04-08T12:38:55;99745.22;;;16.67;53.06
11343;BME280;5726;42.160;24.746;2023-04-08T12:41:21;99750.03;;;16.62;53.40
11343;BME280;5726;42.160;24.746;2023-04-08T12:43:46;99750.94;;;16.74;52.16
11343;BME280;5726;42.160;24.746;2023-04-08T12:46:11;99738.88;;;16.63;52.30
11343;BME280;5726;42.160;24.746;2023-04-08T12:48:37;99734.06;;;16.69;53.15
11343;BME280;5726;42.160;24.746;2023-04-08T12:51:03;99749.13;;;16.95;51.56
11343;BME280;5726;42.160;24.746;2023-04-08T12:53:28;99740.88;;;16.83;51.76
11343;BME280;5726;42.160;24.746;2023-04-08T12:55:53;99741.97;;;16.90;51.23
11343;BME280;5726;42.160;24.746;2023-04-08T12:58:22;99743.09;;;16.89;51.66
11343;BME280;5726;42.160;24.746;2023-04-08T13:00:49;99732.84;;;16.58;53.05
11343;BME280;5726;42.160;24.746;2023-04-08T13:03:15;99730.59;;;16.60;53.23
11343;BME280;5726;42.160;24.746;2023-04-08T13:05:42;99726.03;;;16.97;51.92
11343;BME280;5726;42.160;24.746;2023-04-08T13:08:08;99727.22;;;16.79;52.22
11343;BME280;5726;42.160;24.746;2023-04-08T13:10:34;99735.34;;;16.79;51.68
11343;BME280;5726;42.160;24.746;2023-04-08T13:12:59;99720.53;;;16.69;51.82
11343;BME280;5726;42.160;24.746;2023-04-08T13:15:24;99713.34;;;16.73;51.28
11343;BME280;5726;42.160;24.746;2023-04-08T13:17:50;99724.78;;;16.86;50.71
11343;BME280;5726;42.160;24.746;2023-04-08T13:20:16;99709.19;;;16.83;51.02